Time;durP1;ratioP1;P1;durP2;ratioP2;P2;SDS_P1;SDS_P2;PMS_P1;PMS_P2;Temp;Humidity;BMP_temperature;BMP_pressure;BME280_temperature;BME280_humidity;BME280_pressure;Samples;Min_cycle;Max_cycle;Signal;HPM_P1;HPM_P2
2022/09/30 00:01:38;;;;;;;29.70;18.92;;;;;;;5.04;80.59;99452.20;2122999;81;21100;-74
2022/09/30 00:04:39;;;;;;;33.15;20.05;;;;;;;5.00;80.95;99452.63;2128502;81;21596;-73
2022/09/30 00:07:41;;;;;;;25.82;17.62;;;;;;;4.92;81.03;99454.18;2102004;82;21056;-73
2022/09/30 00:10:42;;;;;;;24.27;15.68;;;;;;;4.92;81.24;99463.38;2113795;81;21038;-73
2022/09/30 00:13:46;;;;;;;22.48;15.88;;;;;;;4.93;80.91;99473.44;2113979;81;21083;-74
2022/09/30 00:16:48;;;;;;;34.88;21.12;;;;;;;4.92;80.98;99471.27;2082393;83;21075;-74
2022/09/30 00:19:49;;;;;;;32.70;19.75;;;;;;;4.90;81.24;99469.30;2074043;83;20992;-74
2022/09/30 00:22:50;;;;;;;29.85;18.35;;;;;;;4.89;81.31;99474.69;2109079;81;21562;-74
2022/09/30 00:25:54;;;;;;;;;;;;;;;4.82;81.44;99470.51;2105218;81;21089;-73
2022/09/30 00:28:58;;;;;;;23.42;16.82;;;;;;;4.83;81.39;99473.46;2106461;82;20478;-73
2022/09/30 00:31:59;;;;;;;29.00;18.25;;;;;;;4.79;81.25;99479.17;2112244;81;21051;-74
2022/09/30 00:35:00;;;;;;;24.67;17.15;;;;;;;4.82;81.46;99480.20;2052495;84;21089;-74
2022/09/30 00:38:01;;;;;;;29.05;17.15;;;;;;;4.87;81.66;99489.30;2104828;83;21023;-74
2022/09/30 00:41:03;;;;;;;28.10;18.30;;;;;;;4.91;81.66;99494.59;2093789;81;21032;-73
2022/09/30 00:44:42;;;;;;;24.63;17.70;;;;;;;4.88;81.68;99490.95;2115843;81;21037;-73
2022/09/30 00:47:59;;;;;;;28.65;18.77;;;;;;;4.91;81.96;99494.59;2079910;82;21138;-76
2022/09/30 00:51:03;;;;;;;31.55;19.37;;;;;;;4.95;82.05;99499.07;2086946;83;21132;-73
2022/09/30 00:54:09;;;;;;;32.70;20.12;;;;;;;4.98;82.32;99496.15;2109687;82;21063;-73
2022/09/30 00:57:11;;;;;;;31.85;20.48;;;;;;;4.99;82.50;99501.77;2103215;81;21084;-73
2022/09/30 01:00:12;;;;;;;25.97;17.95;;;;;;;5.02;82.56;99500.65;2107843;81;21116;-73
2022/09/30 01:03:13;;;;;;;29.50;18.85;;;;;;;5.05;82.72;99501.17;2092754;82;21027;-75
2022/09/30 01:06:17;;;;;;;32.20;20.88;;;;;;;5.09;82.81;99505.64;2096228;81;21079;-73
2022/09/30 01:09:19;;;;;;;36.77;22.17;;;;;;;5.17;82.98;99513.64;2099452;82;21059;-74
2022/09/30 01:12:24;;;;;;;35.33;22.27;;;;;;;5.21;82.96;99518.11;2115786;81;21185;-72
2022/09/30 01:15:49;;;;;;;32.25;20.82;;;;;;;5.27;83.15;99517.05;2077752;83;21126;-73
2022/09/30 01:19:18;;;;;;;33.38;20.55;;;;;;;5.32;83.27;99516.13;2095138;83;21133;-73
2022/09/30 01:22:51;;;;;;;35.52;21.90;;;;;;;5.37;83.31;99511.72;2122542;81;21028;-73
2022/09/30 01:26:23;;;;;;;31.70;22.22;;;;;;;5.39;83.32;99504.52;2088708;81;21597;-74
2022/09/30 01:30:02;;;;;;;36.35;21.25;;;;;;;5.43;83.43;99505.86;2097020;82;21147;-76
2022/09/30 01:33:14;;;;;;;34.27;21.75;;;;;;;5.50;83.66;99500.35;2104359;81;21059;-73
2022/09/30 01:36:26;;;;;;;29.52;18.77;;;;;;;5.57;83.75;99516.36;2096591;83;21521;-75
2022/09/30 01:39:38;;;;;;;29.72;19.57;;;;;;;5.58;83.66;99519.35;2117684;81;21493;-73
2022/09/30 01:42:51;;;;;;;29.32;19.82;;;;;;;5.61;83.70;99515.10;2111312;81;21062;-76
2022/09/30 01:45:57;;;;;;;31.35;20.88;;;;;;;5.59;83.75;99502.08;2104462;82;21695;-76
2022/09/30 01:49:13;;;;;;;29.27;20.00;;;;;;;5.59;83.77;99504.71;2105787;81;21027;-73
2022/09/30 01:52:20;;;;;;;33.00;21.42;;;;;;;5.57;83.88;99500.58;2106016;81;21094;-73
2022/09/30 01:55:32;;;;;;;34.08;20.50;;;;;;;5.60;84.16;99502.91;2109577;81;22394;-77
2022/09/30 01:59:25;;;;;;;32.83;21.33;;;;;;;5.61;84.27;99507.21;2058583;84;21113;-73
2022/09/30 02:02:30;;;;;;;31.07;21.42;;;;;;;5.65;84.34;99502.47;2072075;84;21574;-74
2022/09/30 02:05:50;;;;;;;31.45;22.00;;;;;;;5.70;84.48;99504.16;2072291;83;21601;-73
2022/09/30 02:09:05;;;;;;;31.35;21.50;;;;;;;5.73;84.59;99500.73;2075350;83;21078;-72
2022/09/30 02:12:10;;;;;;;33.98;22.13;;;;;;;5.78;84.62;99509.02;2054018;84;21174;-76
2022/09/30 02:15:17;;;;;;;34.27;21.87;;;;;;;5.80;84.52;99509.70;2044565;85;21150;-73
2022/09/30 02:18:34;;;;;;;37.85;22.02;;;;;;;5.81;84.58;99509.20;2046197;85;21489;-73
2022/09/30 02:21:39;;;;;;;33.25;20.88;;;;;;;5.84;84.63;99504.45;2043571;84;21090;-72
2022/09/30 02:24:42;;;;;;;32.28;21.17;;;;;;;5.85;84.72;99497.37;2040600;85;21035;-73
2022/09/30 02:27:50;;;;;;;29.72;20.95;;;;;;;5.85;84.67;99500.01;2051223;85;21031;-72
2022/09/30 02:30:56;;;;;;;32.75;21.77;;;;;;;5.81;84.66;99485.02;2066706;84;21131;-72
2022/09/30 02:34:21;;;;;;;29.92;20.68;;;;;;;5.84;84.83;99488.66;2043185;84;21129;-73
2022/09/30 02:37:41;;;;;;;34.53;22.27;;;;;;;5.89;84.86;99496.61;2045966;84;21165;-72
2022/09/30 02:40:49;;;;;;;31.85;21.05;;;;;;;5.92;84.94;99493.67;2046175;85;21075;-73
2022/09/30 02:43:52;;;;;;;31.52;22.10;;;;;;;5.95;85.07;99498.66;2068102;84;21073;-74
2022/09/30 02:47:17;;;;;;;34.43;22.42;;;;;;;5.99;85.16;99506.58;2070228;83;21049;-72
2022/09/30 02:50:30;;;;;;;36.42;22.90;;;;;;;6.04;85.20;99511.73;2069084;83;21027;-74
2022/09/30 02:53:52;;;;;;;31.80;22.15;;;;;;;6.05;85.18;99505.50;2078942;83;21013;-74
2022/09/30 02:57:07;;;;;;;36.73;21.75;;;;;;;6.04;85.18;99505.14;2076216;83;21570;-74
2022/09/30 03:00:09;;;;;;;36.75;24.12;;;;;;;6.10;85.36;99502.39;2071009;83;21015;-75
2022/09/30 03:03:19;;;;;;;39.78;23.22;;;;;;;6.15;85.47;99507.21;2072072;83;21538;-73
2022/09/30 03:06:20;;;;;;;39.23;24.15;;;;;;;6.17;85.54;99511.84;2075560;83;20987;-73
2022/09/30 03:09:26;;;;;;;35.68;22.98;;;;;;;6.21;85.65;99516.63;2075464;83;21174;-75
2022/09/30 03:12:35;;;;;;;34.85;22.45;;;;;;;6.25;85.68;99520.63;2073268;83;21553;-74
2022/09/30 03:16:00;;;;;;;36.10;23.00;;;;;;;6.29;85.73;99537.77;2071981;83;21123;-73
2022/09/30 03:19:35;;;;;;;33.92;21.70;;;;;;;6.36;85.75;99541.11;2043418;84;21020;-74
2022/09/30 03:23:04;;;;;;;30.82;20.80;;;;;;;6.39;85.68;99533.75;2044936;83;21083;-73
2022/09/30 03:26:35;;;;;;;31.95;21.25;;;;;;;6.43;85.65;99536.89;2063593;84;21073;-74
2022/09/30 03:29:59;;;;;;;31.73;20.95;;;;;;;6.45;85.70;99534.94;2114778;81;21058;-73
2022/09/30 03:33:33;;;;;;;31.23;20.60;;;;;;;6.47;85.63;99535.59;2106180;81;21030;-73
2022/09/30 03:36:39;;;;;;;34.88;21.73;;;;;;;6.49;85.68;99529.67;2069500;83;21067;-73
2022/09/30 03:40:07;;;;;;;31.68;23.27;;;;;;;6.51;85.69;99542.22;2043029;85;21097;-73
2022/09/30 03:43:18;;;;;;;39.05;22.93;;;;;;;6.50;85.74;99542.72;2102245;81;21596;-73
2022/09/30 03:46:47;;;;;;;34.03;23.30;;;;;;;6.48;85.82;99547.31;2027316;85;21530;-73
2022/09/30 03:49:53;;;;;;;33.15;22.90;;;;;;;6.49;85.92;99559.98;2079947;83;21054;-73
2022/09/30 03:52:55;;;;;;;32.67;23.47;;;;;;;6.50;86.00;99559.00;2047417;85;22400;-74
2022/09/30 03:55:56;;;;;;;27.50;20.45;;;;;;;6.52;85.94;99563.63;2045420;85;21007;-73
2022/09/30 03:58:57;;;;;;;33.25;22.17;;;;;;;6.54;85.83;99565.63;2055739;84;21064;-73
2022/09/30 04:01:59;;;;;;;35.10;22.13;;;;;;;6.56;85.80;99566.31;2059871;85;21075;-72
2022/09/30 04:05:00;;;;;;;34.50;21.85;;;;;;;6.58;85.86;99567.45;2049461;84;21161;-73
2022/09/30 04:08:01;;;;;;;37.75;23.87;;;;;;;6.54;85.89;99559.04;2046840;84;21090;-74
2022/09/30 04:11:04;;;;;;;38.98;24.12;;;;;;;6.52;85.99;99562.31;2084540;83;21538;-74
2022/09/30 04:14:06;;;;;;;35.78;25.37;;;;;;;6.49;86.14;99559.49;2075088;83;21038;-73
2022/09/30 04:17:07;;;;;;;39.48;25.40;;;;;;;6.46;86.21;99552.39;2058112;85;21054;-73
2022/09/30 04:20:08;;;;;;;37.28;25.60;;;;;;;6.42;86.36;99553.66;2101140;81;21028;-73
2022/09/30 04:23:09;;;;;;;37.67;24.07;;;;;;;6.40;86.51;99551.70;2104081;82;21579;-73
2022/09/30 04:26:14;;;;;;;41.28;26.10;;;;;;;6.36;86.46;99549.84;2117073;81;21132;-75
2022/09/30 04:29:15;;;;;;;39.50;25.70;;;;;;;6.36;86.55;99550.33;2104559;81;21105;-72
2022/09/30 04:32:16;;;;;;;37.25;25.55;;;;;;;6.34;86.60;99551.00;2110608;81;21062;-73
2022/09/30 04:35:17;;;;;;;39.65;26.75;;;;;;;6.34;86.72;99558.91;2120242;81;21515;-74
2022/09/30 04:38:19;;;;;;;45.45;27.00;;;;;;;6.33;86.72;99558.55;2102094;82;20987;-73
2022/09/30 04:41:21;;;;;;;48.83;30.05;;;;;;;6.31;86.65;99554.77;2110481;81;21062;-72
2022/09/30 04:44:22;;;;;;;42.38;29.37;;;;;;;6.27;86.70;99550.27;2104708;81;21075;-74
2022/09/30 04:47:24;;;;;;;43.63;28.62;;;;;;;6.28;86.86;99557.20;2111509;81;21105;-73
2022/09/30 04:50:25;;;;;;;43.10;29.42;;;;;;;6.28;87.02;99554.57;2108923;81;21604;-73
2022/09/30 04:53:27;;;;;;;48.23;30.37;;;;;;;6.30;87.08;99558.36;2116577;81;21157;-73
2022/09/30 04:56:28;;;;;;;41.85;29.15;;;;;;;6.33;87.21;99571.72;2105646;81;21018;-74
2022/09/30 04:59:29;;;;;;;41.85;28.30;;;;;;;6.36;87.26;99580.63;2115510;82;21597;-72
2022/09/30 05:02:31;;;;;;;44.35;27.85;;;;;;;6.38;87.35;99575.55;2113994;82;21048;-72
2022/09/30 05:05:32;;;;;;;43.48;29.02;;;;;;;6.40;87.41;99570.14;2119613;81;21418;-73
2022/09/30 05:08:34;;;;;;;45.67;30.20;;;;;;;6.41;87.48;99575.73;2122418;81;21038;-73
2022/09/30 05:11:37;;;;;;;54.93;33.23;;;;;;;6.42;87.53;99582.19;2123564;81;21155;-73
2022/09/30 05:14:38;;;;;;;52.98;30.37;;;;;;;6.42;87.62;99581.33;2098590;82;21102;-73
2022/09/30 05:17:39;;;;;;;44.20;28.32;;;;;;;6.42;87.75;99593.20;2096018;81;21045;-73
2022/09/30 05:20:40;;;;;;;50.38;32.28;;;;;;;6.44;87.79;99601.28;2105184;81;21139;-73
2022/09/30 05:23:41;;;;;;;48.25;30.08;;;;;;;6.49;87.82;99613.52;2110371;82;21588;-74
2022/09/30 05:26:43;;;;;;;49.88;30.10;;;;;;;6.55;87.84;99612.09;2121176;81;21101;-73
2022/09/30 05:29:44;;;;;;;48.45;30.17;;;;;;;6.60;87.85;99607.69;2114438;82;21093;-75
2022/09/30 05:32:45;;;;;;;46.48;28.07;;;;;;;6.64;87.84;99612.97;2107971;82;21097;-73
2022/09/30 05:35:46;;;;;;;51.13;30.15;;;;;;;6.67;87.89;99614.83;2117575;81;21060;-73
2022/09/30 05:38:52;;;;;;;42.15;28.50;;;;;;;6.72;87.90;99620.94;2122351;81;21604;-73
2022/09/30 05:41:56;;;;;;;47.50;30.17;;;;;;;6.74;87.90;99622.45;2113913;83;21502;-75
2022/09/30 05:44:57;;;;;;;47.00;30.60;;;;;;;6.84;87.99;99631.59;2117950;82;21010;-72
2022/09/30 05:47:59;;;;;;;46.28;30.95;;;;;;;6.92;87.97;99632.12;2105419;82;21100;-72
2022/09/30 05:51:01;;;;;;;43.52;29.60;;;;;;;6.99;87.97;99634.98;2111728;81;21047;-73
2022/09/30 05:54:02;;;;;;;45.30;30.08;;;;;;;7.04;87.96;99632.22;2121331;81;21084;-73
2022/09/30 05:57:03;;;;;;;43.83;30.37;;;;;;;7.14;88.01;99642.15;2118247;82;21110;-73
2022/09/30 06:00:05;;;;;;;50.63;30.70;;;;;;;7.22;87.90;99633.95;2119919;81;21420;-74
2022/09/30 06:03:09;;;;;;;44.53;28.62;;;;;;;7.28;87.96;99634.64;2111179;82;21090;-74
2022/09/30 06:06:11;;;;;;;50.35;29.63;;;;;;;7.35;87.90;99644.42;2110067;82;21101;-72
2022/09/30 06:09:13;;;;;;;45.98;31.27;;;;;;;7.40;87.81;99647.89;2113288;81;21558;-73
2022/09/30 06:12:14;;;;;;;49.42;34.55;;;;;;;7.47;87.96;99654.20;2119624;81;21056;-74
2022/09/30 06:15:16;;;;;;;50.03;33.75;;;;;;;7.54;88.01;99655.21;2109334;81;21058;-74
2022/09/30 06:18:17;;;;;;;48.30;28.80;;;;;;;7.62;88.03;99662.34;2099088;81;22329;-74
2022/09/30 06:21:18;;;;;;;40.98;26.62;;;;;;;7.69;88.09;99671.30;2107298;82;20998;-74
2022/09/30 06:24:20;;;;;;;39.00;26.45;;;;;;;7.74;88.09;99675.63;2108285;81;21082;-73
2022/09/30 06:27:21;;;;;;;37.65;26.65;;;;;;;7.81;88.11;99674.48;2098462;81;21061;-72
2022/09/30 06:30:23;;;;;;;36.68;25.60;;;;;;;7.87;88.12;99675.16;2124123;81;21058;-73
2022/09/30 06:33:24;;;;;;;39.33;27.07;;;;;;;7.94;88.09;99674.86;2126562;81;21052;-73
2022/09/30 06:36:27;;;;;;;34.80;25.62;;;;;;;8.00;88.13;99677.36;2114783;81;21545;-72
2022/09/30 06:39:28;;;;;;;36.85;26.25;;;;;;;8.07;88.16;99684.45;2113486;82;21072;-73
2022/09/30 06:42:29;;;;;;;41.73;27.70;;;;;;;8.11;88.01;99681.02;2104312;82;21487;-74
2022/09/30 06:45:31;;;;;;;39.80;27.85;;;;;;;8.03;87.92;99682.31;2119765;82;21680;-73
2022/09/30 06:48:33;;;;;;;37.70;26.33;;;;;;;7.99;88.04;99687.08;2125786;82;21106;-73
2022/09/30 06:51:35;;;;;;;40.58;27.25;;;;;;;8.02;88.26;99693.36;2118401;82;21112;-73
2022/09/30 06:54:36;;;;;;;41.10;27.32;;;;;;;8.08;88.39;99686.13;2119901;81;21041;-72
2022/09/30 06:57:40;;;;;;;41.48;28.60;;;;;;;8.14;88.45;99691.27;2108007;81;21073;-72
2022/09/30 07:00:42;;;;;;;39.03;26.93;;;;;;;8.20;88.52;99690.61;2109210;81;21832;-73
2022/09/30 07:03:45;;;;;;;44.30;27.02;;;;;;;8.26;88.39;99698.39;2110775;82;21086;-73
2022/09/30 07:06:46;;;;;;;40.58;27.32;;;;;;;8.28;88.16;99703.85;2123384;81;21613;-72
2022/09/30 07:09:47;;;;;;;36.58;25.68;;;;;;;8.34;88.31;99701.05;2103554;82;21078;-74
2022/09/30 07:12:51;;;;;;;37.53;26.65;;;;;;;8.40;88.32;99707.04;2106370;83;21609;-73
2022/09/30 07:15:55;;;;;;;35.95;24.60;;;;;;;8.47;88.14;99704.56;2106027;82;21078;-72
2022/09/30 07:18:58;;;;;;;43.20;27.52;;;;;;;8.56;88.30;99702.75;2101223;81;21138;-72
2022/09/30 07:22:26;;;;;;;38.58;26.90;;;;;;;8.61;88.12;99700.45;2101595;82;21054;-73
2022/09/30 07:25:05;;;;;;;37.28;25.27;;;;;;;8.67;88.10;99713.01;2113017;81;21017;-74
2022/09/30 07:28:06;;;;;;;40.17;28.27;;;;;;;8.70;87.99;99718.82;2091493;83;21596;-72
2022/09/30 07:31:12;;;;;;;43.75;30.35;;;;;;;8.76;87.96;99719.98;2105233;83;21044;-72
2022/09/30 07:34:14;;;;;;;45.05;29.05;;;;;;;8.76;87.77;99723.95;2069096;83;21655;-73
2022/09/30 07:37:18;;;;;;;56.23;31.80;;;;;;;8.82;88.01;99727.25;2072266;83;21167;-73
2022/09/30 07:40:19;;;;;;;42.25;30.20;;;;;;;8.90;88.01;99732.55;2044362;84;21134;-73
2022/09/30 07:43:21;;;;;;;45.10;28.15;;;;;;;8.98;88.26;99732.55;2059547;83;21128;-72
2022/09/30 07:46:30;;;;;;;39.73;27.05;;;;;;;9.06;87.94;99740.14;2039320;84;21023;-73
2022/09/30 07:49:31;;;;;;;45.55;29.65;;;;;;;9.12;87.91;99743.44;2043736;84;21622;-72
2022/09/30 07:52:33;;;;;;;40.50;27.22;;;;;;;9.19;87.81;99749.73;2034754;86;21099;-73
2022/09/30 07:55:34;;;;;;;41.90;27.42;;;;;;;9.28;87.81;99754.02;2039812;85;21533;-73
2022/09/30 07:58:36;;;;;;;41.13;29.32;;;;;;;9.33;87.69;99750.89;2076207;83;21124;-75
2022/09/30 08:01:37;;;;;;;39.23;28.70;;;;;;;9.39;87.73;99756.33;2096324;81;21689;-73
2022/09/30 08:04:38;;;;;;;45.05;31.40;;;;;;;9.45;87.64;99755.33;2094240;82;21113;-73
2022/09/30 08:07:40;;;;;;;41.92;28.30;;;;;;;9.46;87.52;99756.97;2096040;82;21040;-73
2022/09/30 08:10:41;;;;;;;40.05;27.62;;;;;;;9.49;87.62;99750.86;2097834;82;21145;-73
2022/09/30 08:13:42;;;;;;;32.28;23.57;;;;;;;9.54;87.69;99752.48;2089816;81;21077;-74
2022/09/30 08:16:43;;;;;;;35.28;24.10;;;;;;;9.57;87.57;99749.53;2061555;84;21151;-73
2022/09/30 08:19:45;;;;;;;31.02;22.25;;;;;;;9.63;87.75;99759.44;2064708;83;21592;-73
2022/09/30 08:22:46;;;;;;;31.10;23.00;;;;;;;9.69;87.46;99752.64;2048526;84;21628;-73
2022/09/30 08:25:47;;;;;;;32.45;22.65;;;;;;;9.74;87.26;99752.96;2044804;85;21502;-76
2022/09/30 08:28:48;;;;;;;36.35;23.98;;;;;;;9.81;87.43;99761.86;2030872;86;21129;-73
2022/09/30 08:31:50;;;;;;;30.48;21.52;;;;;;;9.91;87.51;99763.01;2038146;84;21114;-74
2022/09/30 08:34:52;;;;;;;30.37;21.00;;;;;;;9.98;86.98;99763.14;2042624;84;21112;-73
2022/09/30 08:37:53;;;;;;;30.95;21.05;;;;;;;10.08;87.10;99766.42;2054394;84;21034;-73
2022/09/30 08:41:08;;;;;;;26.40;21.07;;;;;;;10.31;86.88;99761.20;2045139;84;21096;-73
2022/09/30 08:44:39;;;;;;;29.85;21.07;;;;;;;10.31;86.88;99761.20;2030972;85;22232;-75
2022/09/30 08:48:18;;;;;;;31.20;19.77;;;;;;;10.45;86.70;99770.26;2105759;82;21066;-73
2022/09/30 08:51:34;;;;;;;26.50;20.45;;;;;;;10.59;86.40;99766.86;2106415;80;21068;-74
2022/09/30 08:54:36;;;;;;;29.07;19.50;;;;;;;10.73;86.45;99776.71;2106624;82;21090;-73
2022/09/30 08:57:42;;;;;;;25.88;18.80;;;;;;;10.89;85.99;99782.39;2103410;81;21039;-74
2022/09/30 09:00:44;;;;;;;23.87;17.05;;;;;;;11.09;86.08;99781.41;2106156;81;21070;-73
2022/09/30 09:03:45;;;;;;;21.73;16.12;;;;;;;11.29;85.45;99784.42;2091402;83;21098;-75
2022/09/30 09:07:04;;;;;;;24.80;15.63;;;;;;;11.43;85.24;99775.66;2112656;81;21039;-76
2022/09/30 09:10:35;;;;;;;21.20;16.57;;;;;;;11.59;84.69;99789.27;2091750;83;21061;-73
2022/09/30 09:13:57;;;;;;;23.57;16.37;;;;;;;11.75;84.37;99783.48;2119785;81;21127;-74
2022/09/30 09:17:13;;;;;;;22.90;16.77;;;;;;;12.05;84.29;99790.48;2119571;81;20990;-73
2022/09/30 09:20:19;;;;;;;20.62;13.93;;;;;;;12.27;83.06;99797.19;2117892;81;21081;-73
2022/09/30 09:23:21;;;;;;;16.97;12.15;;;;;;;12.53;82.59;99792.72;2120317;82;21341;-76
2022/09/30 09:26:25;;;;;;;15.93;11.78;;;;;;;12.69;81.39;99796.97;2113796;81;21800;-74
2022/09/30 09:29:50;;;;;;;17.07;12.00;;;;;;;12.74;80.25;99790.06;2113825;81;21097;-73
2022/09/30 09:32:56;;;;;;;13.83;10.72;;;;;;;12.79;79.00;99802.31;2108987;81;21194;-73
2022/09/30 09:36:14;;;;;;;15.32;10.03;;;;;;;12.84;79.01;99803.09;2103446;82;21054;-74
2022/09/30 09:39:41;;;;;;;14.10;10.58;;;;;;;12.89;79.23;99808.64;2086639;83;21624;-74
2022/09/30 09:42:53;;;;;;;13.18;9.63;;;;;;;12.89;78.61;99809.98;2096108;82;21104;-73
2022/09/30 09:46:26;;;;;;;15.55;10.55;;;;;;;12.90;78.32;99814.30;2113274;82;21506;-74
2022/09/30 09:49:31;;;;;;;11.28;8.83;;;;;;;12.88;77.98;99814.99;2103047;82;21103;-73
2022/09/30 09:52:59;;;;;;;16.42;10.68;;;;;;;12.86;77.50;99817.02;2104051;81;21596;-74
2022/09/30 09:56:03;;;;;;;13.50;10.23;;;;;;;12.84;77.15;99819.55;2113765;81;21077;-73
2022/09/30 09:59:15;;;;;;;19.37;11.05;;;;;;;12.74;76.95;99808.70;2119047;82;21128;-73
2022/09/30 10:02:31;;;;;;;15.63;10.45;;;;;;;12.61;76.49;99804.55;2105301;82;21078;-73
2022/09/30 10:05:46;;;;;;;15.20;9.85;;;;;;;12.57;76.38;99804.63;2113265;81;21013;-74
2022/09/30 10:08:54;;;;;;;14.53;9.60;;;;;;;12.51;76.48;99807.52;2108575;81;22261;-73
2022/09/30 10:12:15;;;;;;;15.18;10.15;;;;;;;12.52;76.33;99815.81;2095034;81;21101;-73
2022/09/30 10:15:23;;;;;;;15.68;10.00;;;;;;;12.54;76.45;99812.47;2068959;84;21034;-76
2022/09/30 10:18:36;;;;;;;15.23;9.98;;;;;;;12.56;76.28;99820.28;2071755;84;21079;-74
2022/09/30 10:21:37;;;;;;;14.63;9.90;;;;;;;12.60;76.28;99821.55;2072167;84;21156;-73
2022/09/30 10:24:39;;;;;;;10.70;8.83;;;;;;;12.60;76.05;99822.05;2068469;83;21142;-73
2022/09/30 10:28:00;;;;;;;16.35;9.38;;;;;;;12.52;76.14;99814.48;2066076;84;21008;-74
2022/09/30 10:31:05;;;;;;;12.58;8.98;;;;;;;12.58;76.31;99822.23;2057384;84;21522;-73
2022/09/30 10:34:29;;;;;;;14.87;9.40;;;;;;;12.71;76.42;99818.91;2071760;85;21035;-74
2022/09/30 10:37:31;;;;;;;12.40;9.08;;;;;;;12.79;76.41;99829.45;2082008;83;21102;-74
2022/09/30 10:40:32;;;;;;;12.75;8.93;;;;;;;12.92;76.32;99830.08;2114483;82;22394;-73
2022/09/30 10:43:43;;;;;;;12.68;8.78;;;;;;;12.93;75.62;99818.44;2122143;82;21046;-73
2022/09/30 10:46:49;;;;;;;12.55;8.68;;;;;;;12.97;75.30;99811.70;2115494;82;21027;-73
2022/09/30 10:50:07;;;;;;;10.72;7.37;;;;;;;13.03;75.21;99809.60;2108099;81;21990;-75
2022/09/30 10:53:26;;;;;;;10.75;6.90;;;;;;;13.14;74.38;99817.59;2106447;83;21082;-74
2022/09/30 10:56:38;;;;;;;7.42;5.10;;;;;;;13.29;74.05;99813.55;2093950;81;21053;-73
2022/09/30 10:59:41;;;;;;;7.83;4.97;;;;;;;13.45;73.40;99807.95;2111944;81;21130;-73
2022/09/30 11:03:03;;;;;;;9.43;5.35;;;;;;;13.74;72.60;99826.11;2039526;84;21075;-74
2022/09/30 11:06:06;;;;;;;10.50;6.20;;;;;;;13.79;71.96;99813.02;2050021;84;22424;-73
2022/09/30 11:09:47;;;;;;;8.03;5.75;;;;;;;14.12;72.08;99822.56;2088320;83;21063;-76
2022/09/30 11:12:52;;;;;;;10.43;6.55;;;;;;;14.29;69.35;99815.88;2058824;82;21094;-73
2022/09/30 11:16:28;;;;;;;8.85;6.28;;;;;;;14.43;69.95;99814.61;2087224;82;21004;-74
2022/09/30 11:20:09;;;;;;;10.75;6.75;;;;;;;14.51;69.22;99815.77;2104067;83;21105;-76
2022/09/30 11:23:35;;;;;;;7.85;5.83;;;;;;;14.59;69.34;99815.63;2095361;82;21106;-73
2022/09/30 11:26:59;;;;;;;8.88;6.17;;;;;;;14.86;68.78;99813.03;2100549;83;21348;-74
2022/09/30 11:30:25;;;;;;;8.63;6.25;;;;;;;15.09;67.33;99804.64;2103232;83;21645;-73
2022/09/30 11:33:32;;;;;;;10.78;6.70;;;;;;;15.22;67.83;99792.63;2116496;81;21066;-74
2022/09/30 11:37:03;;;;;;;11.55;8.05;;;;;;;15.49;68.94;99798.81;2111020;82;21640;-74
2022/09/30 11:40:34;;;;;;;10.28;7.40;;;;;;;15.74;68.10;99802.20;2114426;82;21035;-73
2022/09/30 11:43:46;;;;;;;9.80;7.07;;;;;;;15.85;67.54;99798.89;2112849;82;21568;-73
2022/09/30 11:47:15;;;;;;;10.48;6.78;;;;;;;15.88;65.69;99801.14;2105208;81;21431;-74
2022/09/30 11:50:51;;;;;;;6.03;4.72;;;;;;;15.75;65.46;99802.00;2114002;81;21067;-73
2022/09/30 11:54:09;;;;;;;6.62;4.87;;;;;;;15.66;64.58;99800.55;2115983;81;21105;-74
2022/09/30 11:57:25;;;;;;;6.20;3.92;;;;;;;15.41;64.10;99809.20;2105859;82;21053;-77
2022/09/30 12:00:29;;;;;;;7.45;5.05;;;;;;;15.46;64.77;99809.92;2108618;82;21123;-74
2022/09/30 12:03:39;;;;;;;7.12;4.70;;;;;;;15.45;63.82;99818.95;2110461;81;21146;-73
2022/09/30 12:06:51;;;;;;;5.40;4.22;;;;;;;15.53;63.92;99818.75;2034951;85;21073;-74
2022/09/30 12:10:03;;;;;;;7.87;4.85;;;;;;;15.41;63.07;99813.72;2074510;84;21089;-77
2022/09/30 12:13:13;;;;;;;5.65;4.15;;;;;;;15.17;63.07;99817.28;2064709;84;21083;-74
2022/09/30 12:16:19;;;;;;;5.75;3.60;;;;;;;15.13;62.72;99814.73;2056466;84;21095;-74
2022/09/30 12:19:26;;;;;;;6.03;4.20;;;;;;;14.94;62.35;99815.00;2103156;83;21073;-76
2022/09/30 12:22:40;;;;;;;8.48;4.42;;;;;;;14.94;62.97;99820.34;2108735;81;21480;-74
2022/09/30 12:25:58;;;;;;;7.12;4.50;;;;;;;15.05;63.66;99820.27;2106701;81;21075;-73
2022/09/30 12:33:23;;;;;;;6.35;3.80;;;;;;;15.02;63.63;99828.17;2099802;82;21066;-74
2022/09/30 12:36:52;;;;;;;6.83;5.25;;;;;;;15.05;63.16;99833.63;2093018;82;21150;-74
2022/09/30 12:40:10;;;;;;;7.12;5.10;;;;;;;15.05;62.89;99836.30;2109613;83;21374;-75
2022/09/30 12:43:21;;;;;;;6.62;5.55;;;;;;;15.00;62.67;99842.75;2115650;81;21018;-74
2022/09/30 12:46:21;;;;;;;8.03;5.20;;;;;;;15.06;63.64;99842.45;2103054;82;21455;-74
2022/09/30 12:49:26;;;;;;;8.25;5.20;;;;;;;15.09;63.68;99837.55;2113712;81;21145;-76
2022/09/30 12:52:32;;;;;;;8.05;6.30;;;;;;;15.12;63.00;99844.31;2109001;82;21601;-74
2022/09/30 12:55:41;;;;;;;7.17;6.12;;;;;;;15.06;63.70;99840.59;2106338;81;21080;-74
2022/09/30 12:58:49;;;;;;;10.05;6.97;;;;;;;14.99;63.25;99839.78;2117202;82;21021;-72
2022/09/30 13:01:50;;;;;;;10.88;6.08;;;;;;;14.87;62.96;99838.22;2114063;82;21015;-72
2022/09/30 13:04:52;;;;;;;8.08;5.83;;;;;;;14.78;63.40;99836.73;2112397;82;21549;-73
2022/09/30 13:08:10;;;;;;;8.98;5.75;;;;;;;14.79;63.15;99844.55;2130583;81;21698;-72
2022/09/30 13:11:32;;;;;;;9.40;5.85;;;;;;;14.85;63.80;99838.10;2118186;81;21082;-72
2022/09/30 13:14:42;;;;;;;7.45;5.97;;;;;;;14.88;63.01;99829.69;2101659;82;21125;-72
2022/09/30 13:17:40;;;;;;;11.50;6.45;;;;;;;14.90;63.68;99835.14;2107228;82;21011;-72
2022/09/30 13:21:11;;;;;;;7.37;5.42;;;;;;;15.01;63.27;99841.75;2107185;82;21042;-75
2022/09/30 13:24:15;;;;;;;;;;;;;;;14.96;62.63;99837.52;2127641;81;21036;-75
2022/09/30 13:27:16;;;;;;;9.25;6.20;;;;;;;14.87;62.50;99841.41;2116371;81;20422;-73
2022/09/30 13:30:24;;;;;;;9.10;5.87;;;;;;;14.77;63.17;99836.42;2115789;81;21628;-73
2022/09/30 13:33:31;;;;;;;8.40;5.60;;;;;;;14.79;63.34;99835.72;2109183;81;22250;-73
2022/09/30 13:36:54;;;;;;;7.60;5.35;;;;;;;14.73;63.30;99834.67;2103728;81;21754;-73
2022/09/30 13:39:56;;;;;;;8.33;5.65;;;;;;;14.74;63.66;99840.84;2104728;81;21064;-72
2022/09/30 13:42:59;;;;;;;8.88;5.83;;;;;;;14.80;63.29;99836.84;2109123;82;21089;-73
2022/09/30 13:46:22;;;;;;;10.32;5.60;;;;;;;14.68;63.26;99829.11;2121813;82;21101;-73
2022/09/30 13:49:54;;;;;;;6.87;5.03;;;;;;;14.65;63.32;99826.02;2112732;82;21629;-75
2022/09/30 13:53:01;;;;;;;9.30;5.35;;;;;;;14.67;62.85;99823.47;2103854;82;21105;-73
2022/09/30 13:56:10;;;;;;;8.03;5.25;;;;;;;14.50;62.92;99826.97;2124902;81;21130;-73
2022/09/30 13:59:50;;;;;;;6.62;4.47;;;;;;;14.47;62.91;99836.72;2052379;85;21079;-73
2022/09/30 14:03:34;;;;;;;6.42;4.30;;;;;;;14.32;62.72;99830.16;2053348;84;21116;-73
2022/09/30 14:07:09;;;;;;;5.70;4.75;;;;;;;14.24;62.96;99826.31;2080823;83;21668;-75
2022/09/30 14:10:46;;;;;;;5.90;4.25;;;;;;;14.14;62.76;99833.87;2097804;82;21094;-73
2022/09/30 14:14:36;;;;;;;6.65;4.95;;;;;;;14.09;62.73;99835.79;2094302;83;20991;-73
2022/09/30 14:18:08;;;;;;;6.25;4.25;;;;;;;14.16;63.23;99844.33;2105908;81;21679;-73
2022/09/30 14:21:39;;;;;;;4.95;4.03;;;;;;;14.18;63.08;99841.78;2097570;81;21059;-73
2022/09/30 14:24:41;;;;;;;6.90;4.00;;;;;;;14.19;63.08;99828.78;2087235;83;21130;-73
2022/09/30 14:27:53;;;;;;;6.40;4.03;;;;;;;14.15;63.29;99838.18;2070959;83;21170;-72
2022/09/30 14:31:07;;;;;;;4.85;3.65;;;;;;;14.09;63.18;99836.30;2046611;83;21377;-73
2022/09/30 14:34:12;;;;;;;5.05;3.50;;;;;;;14.15;63.60;99842.19;2045584;84;21606;-73
2022/09/30 14:37:27;;;;;;;3.55;3.10;;;;;;;14.30;62.98;99838.89;2046227;84;21058;-74
2022/09/30 14:40:33;;;;;;;4.62;3.45;;;;;;;14.41;62.33;99842.00;2048619;84;21077;-74
2022/09/30 14:43:39;;;;;;;7.97;3.67;;;;;;;14.47;61.88;99844.72;2045936;84;21070;-74
2022/09/30 14:46:45;;;;;;;5.10;3.40;;;;;;;14.38;61.59;99843.73;2052305;84;21122;-74
2022/09/30 14:49:47;;;;;;;7.53;4.05;;;;;;;14.20;61.79;99857.09;2091287;82;21118;-77